sensor_id;sensor_type;location;lat;lon;timestamp;P1;durP1;ratioP1;P2;durP2;ratioP2
75408;SDS011;63979;55.644;37.734;2023-07-22T00:03:00;2.03;;;1.73;;
75408;SDS011;63979;55.644;37.734;2023-07-22T00:08:01;3.53;;;1.85;;
75408;SDS011;63979;55.644;37.734;2023-07-22T00:13:02;2.60;;;1.55;;
75408;SDS011;63979;55.644;37.734;2023-07-22T00:18:03;6.95;;;2.55;;
75408;SDS011;63979;55.644;37.734;2023-07-22T00:23:04;2.35;;;1.77;;
75408;SDS011;63979;55.644;37.734;2023-07-22T00:28:05;2.72;;;1.83;;
75408;SDS011;63979;55.644;37.734;2023-07-22T00:33:06;4.50;;;1.80;;
75408;SDS011;63979;55.644;37.734;2023-07-22T00:38:08;2.75;;;1.65;;
75408;SDS011;63979;55.644;37.734;2023-07-22T00:43:10;4.40;;;1.45;;
75408;SDS011;63979;55.644;37.734;2023-07-22T00:48:11;3.75;;;2.10;;
75408;SDS011;63979;55.644;37.734;2023-07-22T00:53:15;1.77;;;1.35;;
75408;SDS011;63979;55.644;37.734;2023-07-22T00:58:16;6.32;;;2.15;;
75408;SDS011;63979;55.644;37.734;2023-07-22T01:03:17;2.50;;;1.33;;
75408;SDS011;63979;55.644;37.734;2023-07-22T01:13:20;4.75;;;1.73;;
75408;SDS011;63979;55.644;37.734;2023-07-22T01:18:21;1.92;;;1.55;;
75408;SDS011;63979;55.644;37.734;2023-07-22T01:23:22;5.63;;;1.90;;
75408;SDS011;63979;55.644;37.734;2023-07-22T01:28:23;3.08;;;1.63;;
75408;SDS011;63979;55.644;37.734;2023-07-22T01:33:24;3.97;;;1.13;;
75408;SDS011;63979;55.644;37.734;2023-07-22T01:38:27;1.92;;;1.40;;
75408;SDS011;63979;55.644;37.734;2023-07-22T01:43:29;2.13;;;1.30;;
75408;SDS011;63979;55.644;37.734;2023-07-22T01:48:30;3.22;;;1.20;;
75408;SDS011;63979;55.644;37.734;2023-07-22T01:53:32;2.35;;;1.45;;
75408;SDS011;63979;55.644;37.734;2023-07-22T01:58:33;3.97;;;1.50;;
75408;SDS011;63979;55.644;37.734;2023-07-22T02:03:35;2.50;;;1.52;;
75408;SDS011;63979;55.644;37.734;2023-07-22T02:08:36;2.65;;;1.42;;
75408;SDS011;63979;55.644;37.734;2023-07-22T02:13:37;5.28;;;1.45;;
75408;SDS011;63979;55.644;37.734;2023-07-22T02:18:39;1.95;;;1.38;;
75408;SDS011;63979;55.644;37.734;2023-07-22T02:23:40;2.25;;;1.55;;
75408;SDS011;63979;55.644;37.734;2023-07-22T02:28:41;1.92;;;1.42;;
75408;SDS011;63979;55.644;37.734;2023-07-22T02:33:43;1.60;;;1.10;;
75408;SDS011;63979;55.644;37.734;2023-07-22T02:38:44;1.20;;;1.00;;
75408;SDS011;63979;55.644;37.734;2023-07-22T02:43:45;3.28;;;1.27;;
75408;SDS011;63979;55.644;37.734;2023-07-22T02:48:47;2.65;;;1.20;;
75408;SDS011;63979;55.644;37.734;2023-07-22T02:53:48;2.47;;;1.20;;
75408;SDS011;63979;55.644;37.734;2023-07-22T02:58:50;3.65;;;1.08;;
75408;SDS011;63979;55.644;37.734;2023-07-22T03:03:51;3.78;;;1.40;;
75408;SDS011;63979;55.644;37.734;2023-07-22T03:08:52;1.88;;;1.42;;
75408;SDS011;63979;55.644;37.734;2023-07-22T03:13:54;2.70;;;1.27;;
75408;SDS011;63979;55.644;37.734;2023-07-22T03:18:55;2.08;;;1.45;;
75408;SDS011;63979;55.644;37.734;2023-07-22T03:23:56;1.60;;;1.10;;
75408;SDS011;63979;55.644;37.734;2023-07-22T03:28:57;3.05;;;1.27;;
75408;SDS011;63979;55.644;37.734;2023-07-22T03:33:58;1.42;;;1.20;;
75408;SDS011;63979;55.644;37.734;2023-07-22T03:38:59;3.17;;;1.50;;
75408;SDS011;63979;55.644;37.734;2023-07-22T03:44:00;1.38;;;1.00;;
75408;SDS011;63979;55.644;37.734;2023-07-22T03:49:01;1.70;;;1.17;;
75408;SDS011;63979;55.644;37.734;2023-07-22T03:54:02;3.65;;;1.45;;
75408;SDS011;63979;55.644;37.734;2023-07-22T03:59:03;2.83;;;1.20;;
75408;SDS011;63979;55.644;37.734;2023-07-22T04:04:04;2.13;;;1.30;;
75408;SDS011;63979;55.644;37.734;2023-07-22T04:09:05;4.55;;;1.20;;
75408;SDS011;63979;55.644;37.734;2023-07-22T04:14:06;2.28;;;1.38;;
75408;SDS011;63979;55.644;37.734;2023-07-22T04:19:07;5.10;;;1.75;;
75408;SDS011;63979;55.644;37.734;2023-07-22T04:24:08;4.78;;;1.75;;
75408;SDS011;63979;55.644;37.734;2023-07-22T04:29:11;2.85;;;1.20;;
75408;SDS011;63979;55.644;37.734;2023-07-22T04:34:13;6.00;;;1.10;;
75408;SDS011;63979;55.644;37.734;2023-07-22T04:39:14;4.97;;;1.63;;
75408;SDS011;63979;55.644;37.734;2023-07-22T04:44:15;3.28;;;1.27;;
75408;SDS011;63979;55.644;37.734;2023-07-22T04:49:18;1.33;;;1.10;;
75408;SDS011;63979;55.644;37.734;2023-07-22T04:54:19;1.40;;;1.13;;
75408;SDS011;63979;55.644;37.734;2023-07-22T04:59:20;2.33;;;1.25;;
75408;SDS011;63979;55.644;37.734;2023-07-22T05:04:21;3.03;;;1.40;;
75408;SDS011;63979;55.644;37.734;2023-07-22T05:09:22;2.50;;;1.20;;
75408;SDS011;63979;55.644;37.734;2023-07-22T05:14:24;3.38;;;1.17;;
75408;SDS011;63979;55.644;37.734;2023-07-22T05:19:25;3.53;;;1.40;;
75408;SDS011;63979;55.644;37.734;2023-07-22T05:24:26;3.78;;;1.10;;
75408;SDS011;63979;55.644;37.734;2023-07-22T05:29:27;2.33;;;1.40;;
75408;SDS011;63979;55.644;37.734;2023-07-22T05:34:28;1.00;;;0.88;;
75408;SDS011;63979;55.644;37.734;2023-07-22T05:39:29;3.15;;;0.80;;
75408;SDS011;63979;55.644;37.734;2023-07-22T05:44:30;1.95;;;1.10;;
75408;SDS011;63979;55.644;37.734;2023-07-22T05:49:31;1.77;;;1.00;;
75408;SDS011;63979;55.644;37.734;2023-07-22T05:54:32;2.35;;;1.00;;
75408;SDS011;63979;55.644;37.734;2023-07-22T05:59:33;3.03;;;1.10;;
75408;SDS011;63979;55.644;37.734;2023-07-22T06:04:36;1.48;;;0.90;;
75408;SDS011;63979;55.644;37.734;2023-07-22T06:09:38;2.45;;;1.00;;
75408;SDS011;63979;55.644;37.734;2023-07-22T06:14:39;2.13;;;0.88;;
75408;SDS011;63979;55.644;37.734;2023-07-22T06:19:40;1.20;;;1.05;;
75408;SDS011;63979;55.644;37.734;2023-07-22T06:24:41;4.03;;;1.50;;
75408;SDS011;63979;55.644;37.734;2023-07-22T06:29:42;4.07;;;1.27;;
75408;SDS011;63979;55.644;37.734;2023-07-22T06:34:43;3.70;;;1.67;;
75408;SDS011;63979;55.644;37.734;2023-07-22T06:39:44;2.88;;;1.17;;
75408;SDS011;63979;55.644;37.734;2023-07-22T06:44:45;2.45;;;1.30;;
75408;SDS011;63979;55.644;37.734;2023-07-22T06:49:46;1.35;;;1.23;;
75408;SDS011;63979;55.644;37.734;2023-07-22T06:54:47;2.63;;;1.05;;
75408;SDS011;63979;55.644;37.734;2023-07-22T06:59:48;1.95;;;0.80;;
75408;SDS011;63979;55.644;37.734;2023-07-22T07:04:51;3.72;;;1.40;;
75408;SDS011;63979;55.644;37.734;2023-07-22T07:09:52;2.38;;;1.33;;
75408;SDS011;63979;55.644;37.734;2023-07-22T07:14:54;2.70;;;1.10;;
75408;SDS011;63979;55.644;37.734;2023-07-22T07:19:55;1.35;;;1.00;;
75408;SDS011;63979;55.644;37.734;2023-07-22T07:24:56;1.38;;;0.95;;
75408;SDS011;63979;55.644;37.734;2023-07-22T07:29:57;3.95;;;1.10;;
75408;SDS011;63979;55.644;37.734;2023-07-22T07:34:58;1.10;;;0.88;;
75408;SDS011;63979;55.644;37.734;2023-07-22T07:39:59;1.88;;;1.20;;
75408;SDS011;63979;55.644;37.734;2023-07-22T07:45:00;1.02;;;0.85;;
75408;SDS011;63979;55.644;37.734;2023-07-22T07:50:01;5.72;;;1.50;;
75408;SDS011;63979;55.644;37.734;2023-07-22T07:55:05;4.30;;;1.02;;
75408;SDS011;63979;55.644;37.734;2023-07-22T08:00:06;2.13;;;0.88;;
75408;SDS011;63979;55.644;37.734;2023-07-22T08:05:09;1.55;;;0.80;;
75408;SDS011;63979;55.644;37.734;2023-07-22T08:10:10;3.60;;;0.98;;
75408;SDS011;63979;55.644;37.734;2023-07-22T08:15:11;1.58;;;1.05;;
75408;SDS011;63979;55.644;37.734;2023-07-22T08:20:12;1.35;;;0.82;;
75408;SDS011;63979;55.644;37.734;2023-07-22T08:25:13;2.08;;;1.00;;
75408;SDS011;63979;55.644;37.734;2023-07-22T08:30:15;3.80;;;1.02;;
75408;SDS011;63979;55.644;37.734;2023-07-22T08:35:16;2.13;;;1.00;;
75408;SDS011;63979;55.644;37.734;2023-07-22T08:40:18;3.13;;;1.00;;
75408;SDS011;63979;55.644;37.734;2023-07-22T08:45:19;2.20;;;1.10;;
75408;SDS011;63979;55.644;37.734;2023-07-22T08:50:21;4.75;;;1.13;;
75408;SDS011;63979;55.644;37.734;2023-07-22T08:55:29;1.73;;;0.80;;
75408;SDS011;63979;55.644;37.734;2023-07-22T09:00:31;1.80;;;1.10;;
75408;SDS011;63979;55.644;37.734;2023-07-22T09:05:33;1.08;;;0.88;;
75408;SDS011;63979;55.644;37.734;2023-07-22T09:10:35;3.20;;;1.75;;
75408;SDS011;63979;55.644;37.734;2023-07-22T09:15:38;4.22;;;1.10;;
75408;SDS011;63979;55.644;37.734;2023-07-22T09:20:39;1.77;;;0.68;;
75408;SDS011;63979;55.644;37.734;2023-07-22T09:25:41;1.40;;;1.00;;
75408;SDS011;63979;55.644;37.734;2023-07-22T09:30:43;1.98;;;0.93;;
75408;SDS011;63979;55.644;37.734;2023-07-22T09:35:45;0.90;;;0.70;;
75408;SDS011;63979;55.644;37.734;2023-07-22T09:40:47;1.40;;;0.80;;
75408;SDS011;63979;55.644;37.734;2023-07-22T09:45:48;1.85;;;0.80;;
75408;SDS011;63979;55.644;37.734;2023-07-22T09:50:56;0.75;;;0.75;;
75408;SDS011;63979;55.644;37.734;2023-07-22T09:56:02;2.05;;;0.93;;
75408;SDS011;63979;55.644;37.734;2023-07-22T10:01:05;2.05;;;0.98;;
75408;SDS011;63979;55.644;37.734;2023-07-22T10:06:07;1.52;;;0.80;;
75408;SDS011;63979;55.644;37.734;2023-07-22T10:11:08;2.33;;;0.85;;
75408;SDS011;63979;55.644;37.734;2023-07-22T10:16:12;1.10;;;0.70;;
75408;SDS011;63979;55.644;37.734;2023-07-22T10:21:13;3.63;;;1.08;;
75408;SDS011;63979;55.644;37.734;2023-07-22T10:26:15;1.95;;;0.90;;
75408;SDS011;63979;55.644;37.734;2023-07-22T10:31:17;1.85;;;0.88;;
75408;SDS011;63979;55.644;37.734;2023-07-22T10:36:19;1.05;;;0.70;;
75408;SDS011;63979;55.644;37.734;2023-07-22T10:41:20;1.40;;;1.05;;
75408;SDS011;63979;55.644;37.734;2023-07-22T10:46:35;2.45;;;1.40;;
75408;SDS011;63979;55.644;37.734;2023-07-22T10:51:40;1.90;;;1.00;;
75408;SDS011;63979;55.644;37.734;2023-07-22T10:56:42;3.60;;;1.25;;
75408;SDS011;63979;55.644;37.734;2023-07-22T11:01:44;2.33;;;1.23;;
75408;SDS011;63979;55.644;37.734;2023-07-22T11:11:51;2.40;;;0.80;;
75408;SDS011;63979;55.644;37.734;2023-07-22T11:16:56;1.75;;;0.70;;
75408;SDS011;63979;55.644;37.734;2023-07-22T11:21:59;2.17;;;0.80;;
75408;SDS011;63979;55.644;37.734;2023-07-22T11:27:05;3.40;;;0.90;;
75408;SDS011;63979;55.644;37.734;2023-07-22T11:32:15;1.55;;;1.15;;
75408;SDS011;63979;55.644;37.734;2023-07-22T11:37:17;1.20;;;1.05;;
75408;SDS011;63979;55.644;37.734;2023-07-22T11:42:19;1.52;;;0.73;;
75408;SDS011;63979;55.644;37.734;2023-07-22T11:47:20;3.15;;;1.17;;
75408;SDS011;63979;55.644;37.734;2023-07-22T11:52:30;2.75;;;0.93;;
75408;SDS011;63979;55.644;37.734;2023-07-22T11:57:31;0.82;;;0.60;;
75408;SDS011;63979;55.644;37.734;2023-07-22T12:02:35;1.45;;;0.80;;
75408;SDS011;63979;55.644;37.734;2023-07-22T12:07:37;1.30;;;1.00;;
75408;SDS011;63979;55.644;37.734;2023-07-22T12:12:40;2.47;;;0.95;;
75408;SDS011;63979;55.644;37.734;2023-07-22T12:23:00;3.20;;;1.20;;
75408;SDS011;63979;55.644;37.734;2023-07-22T12:28:02;2.65;;;1.50;;
75408;SDS011;63979;55.644;37.734;2023-07-22T12:33:04;3.20;;;1.08;;
75408;SDS011;63979;55.644;37.734;2023-07-22T12:38:05;2.47;;;0.85;;
75408;SDS011;63979;55.644;37.734;2023-07-22T12:43:06;1.52;;;0.90;;
75408;SDS011;63979;55.644;37.734;2023-07-22T12:48:09;2.25;;;0.90;;
75408;SDS011;63979;55.644;37.734;2023-07-22T12:53:10;2.10;;;1.10;;
75408;SDS011;63979;55.644;37.734;2023-07-22T12:58:11;1.33;;;0.93;;
75408;SDS011;63979;55.644;37.734;2023-07-22T13:03:12;3.35;;;1.35;;
75408;SDS011;63979;55.644;37.734;2023-07-22T13:08:13;2.75;;;1.20;;
75408;SDS011;63979;55.644;37.734;2023-07-22T13:13:14;1.40;;;0.80;;
75408;SDS011;63979;55.644;37.734;2023-07-22T13:18:15;9.40;;;1.63;;
75408;SDS011;63979;55.644;37.734;2023-07-22T13:23:17;2.15;;;1.48;;
75408;SDS011;63979;55.644;37.734;2023-07-22T13:28:18;2.88;;;2.03;;
75408;SDS011;63979;55.644;37.734;2023-07-22T13:33:19;2.17;;;1.63;;
75408;SDS011;63979;55.644;37.734;2023-07-22T13:38:20;3.80;;;2.20;;
75408;SDS011;63979;55.644;37.734;2023-07-22T13:43:21;4.30;;;1.38;;
75408;SDS011;63979;55.644;37.734;2023-07-22T13:48:23;4.40;;;1.83;;
75408;SDS011;63979;55.644;37.734;2023-07-22T13:53:24;5.05;;;2.00;;
75408;SDS011;63979;55.644;37.734;2023-07-22T13:58:25;5.97;;;1.90;;
75408;SDS011;63979;55.644;37.734;2023-07-22T14:03:26;1.75;;;1.60;;
75408;SDS011;63979;55.644;37.734;2023-07-22T14:08:27;5.50;;;2.50;;
75408;SDS011;63979;55.644;37.734;2023-07-22T14:13:29;1.40;;;1.20;;
75408;SDS011;63979;55.644;37.734;2023-07-22T14:18:30;3.03;;;1.20;;
75408;SDS011;63979;55.644;37.734;2023-07-22T14:23:31;2.67;;;1.42;;
75408;SDS011;63979;55.644;37.734;2023-07-22T14:28:32;1.73;;;1.17;;
75408;SDS011;63979;55.644;37.734;2023-07-22T14:33:33;5.28;;;1.55;;
75408;SDS011;63979;55.644;37.734;2023-07-22T14:38:35;6.65;;;2.17;;
75408;SDS011;63979;55.644;37.734;2023-07-22T14:43:36;7.00;;;4.35;;
75408;SDS011;63979;55.644;37.734;2023-07-22T14:48:37;3.33;;;1.77;;
75408;SDS011;63979;55.644;37.734;2023-07-22T14:53:38;2.90;;;1.55;;
75408;SDS011;63979;55.644;37.734;2023-07-22T14:58:40;3.20;;;0.93;;
75408;SDS011;63979;55.644;37.734;2023-07-22T15:03:42;3.85;;;1.65;;
75408;SDS011;63979;55.644;37.734;2023-07-22T15:08:43;3.78;;;1.77;;
75408;SDS011;63979;55.644;37.734;2023-07-22T15:13:44;1.63;;;1.02;;
75408;SDS011;63979;55.644;37.734;2023-07-22T15:18:45;13.07;;;1.90;;
75408;SDS011;63979;55.644;37.734;2023-07-22T15:23:46;5.10;;;1.60;;
75408;SDS011;63979;55.644;37.734;2023-07-22T15:28:47;2.08;;;1.50;;
75408;SDS011;63979;55.644;37.734;2023-07-22T15:33:49;3.05;;;1.92;;
75408;SDS011;63979;55.644;37.734;2023-07-22T15:38:50;4.03;;;1.50;;
75408;SDS011;63979;55.644;37.734;2023-07-22T15:43:51;2.58;;;1.20;;
75408;SDS011;63979;55.644;37.734;2023-07-22T15:48:52;1.98;;;1.38;;
75408;SDS011;63979;55.644;37.734;2023-07-22T15:53:53;4.90;;;2.40;;
75408;SDS011;63979;55.644;37.734;2023-07-22T15:58:54;2.50;;;1.40;;
75408;SDS011;63979;55.644;37.734;2023-07-22T16:03:55;2.72;;;1.70;;
75408;SDS011;63979;55.644;37.734;2023-07-22T16:08:56;6.97;;;2.47;;
75408;SDS011;63979;55.644;37.734;2023-07-22T16:13:57;3.45;;;2.03;;
75408;SDS011;63979;55.644;37.734;2023-07-22T16:18:58;6.63;;;2.67;;
75408;SDS011;63979;55.644;37.734;2023-07-22T16:23:59;4.95;;;1.40;;
75408;SDS011;63979;55.644;37.734;2023-07-22T16:29:01;4.63;;;1.52;;
75408;SDS011;63979;55.644;37.734;2023-07-22T16:34:02;3.55;;;1.02;;
75408;SDS011;63979;55.644;37.734;2023-07-22T16:39:03;3.33;;;1.52;;
75408;SDS011;63979;55.644;37.734;2023-07-22T16:44:04;6.82;;;1.70;;
75408;SDS011;63979;55.644;37.734;2023-07-22T16:49:06;4.57;;;1.25;;
75408;SDS011;63979;55.644;37.734;2023-07-22T16:54:07;1.95;;;1.42;;
75408;SDS011;63979;55.644;37.734;2023-07-22T16:59:08;2.40;;;1.30;;
75408;SDS011;63979;55.644;37.734;2023-07-22T17:04:09;5.10;;;2.42;;
75408;SDS011;63979;55.644;37.734;2023-07-22T17:09:11;15.80;;;8.57;;
75408;SDS011;63979;55.644;37.734;2023-07-22T17:14:14;2.67;;;1.83;;
75408;SDS011;63979;55.644;37.734;2023-07-22T17:24:16;4.78;;;2.58;;
75408;SDS011;63979;55.644;37.734;2023-07-22T17:29:17;3.10;;;1.80;;
75408;SDS011;63979;55.644;37.734;2023-07-22T17:39:19;4.93;;;2.42;;
75408;SDS011;63979;55.644;37.734;2023-07-22T17:44:20;5.85;;;2.67;;
75408;SDS011;63979;55.644;37.734;2023-07-22T17:49:21;5.00;;;3.05;;
75408;SDS011;63979;55.644;37.734;2023-07-22T17:54:22;4.72;;;4.22;;
75408;SDS011;63979;55.644;37.734;2023-07-22T17:59:23;9.55;;;4.88;;
75408;SDS011;63979;55.644;37.734;2023-07-22T18:04:24;6.07;;;3.85;;
75408;SDS011;63979;55.644;37.734;2023-07-22T18:09:25;8.18;;;5.28;;
75408;SDS011;63979;55.644;37.734;2023-07-22T18:14:26;9.15;;;6.85;;
75408;SDS011;63979;55.644;37.734;2023-07-22T18:19:27;9.02;;;5.28;;
75408;SDS011;63979;55.644;37.734;2023-07-22T18:24:28;5.88;;;3.63;;
75408;SDS011;63979;55.644;37.734;2023-07-22T18:29:30;6.40;;;3.55;;
75408;SDS011;63979;55.644;37.734;2023-07-22T18:34:32;6.03;;;3.22;;
75408;SDS011;63979;55.644;37.734;2023-07-22T18:44:34;9.55;;;4.38;;
75408;SDS011;63979;55.644;37.734;2023-07-22T18:49:36;5.15;;;3.53;;
75408;SDS011;63979;55.644;37.734;2023-07-22T18:54:37;11.30;;;4.65;;
75408;SDS011;63979;55.644;37.734;2023-07-22T18:59:38;8.23;;;4.07;;
75408;SDS011;63979;55.644;37.734;2023-07-22T19:09:40;6.57;;;3.22;;
75408;SDS011;63979;55.644;37.734;2023-07-22T19:14:40;5.18;;;3.38;;
75408;SDS011;63979;55.644;37.734;2023-07-22T19:19:41;6.45;;;4.38;;
75408;SDS011;63979;55.644;37.734;2023-07-22T19:24:47;5.13;;;2.83;;
75408;SDS011;63979;55.644;37.734;2023-07-22T19:29:48;5.25;;;3.30;;
75408;SDS011;63979;55.644;37.734;2023-07-22T19:34:50;6.75;;;3.38;;
75408;SDS011;63979;55.644;37.734;2023-07-22T19:39:51;11.52;;;5.53;;
75408;SDS011;63979;55.644;37.734;2023-07-22T19:44:52;7.20;;;4.53;;
75408;SDS011;63979;55.644;37.734;2023-07-22T19:49:53;10.73;;;5.68;;
75408;SDS011;63979;55.644;37.734;2023-07-22T19:54:55;20.35;;;7.60;;
75408;SDS011;63979;55.644;37.734;2023-07-22T20:04:57;4.40;;;2.90;;
75408;SDS011;63979;55.644;37.734;2023-07-22T20:09:58;9.65;;;5.32;;
75408;SDS011;63979;55.644;37.734;2023-07-22T20:14:59;16.70;;;8.65;;
75408;SDS011;63979;55.644;37.734;2023-07-22T20:20:00;7.40;;;5.00;;
75408;SDS011;63979;55.644;37.734;2023-07-22T20:25:03;13.13;;;4.85;;
75408;SDS011;63979;55.644;37.734;2023-07-22T20:30:05;8.00;;;5.85;;
75408;SDS011;63979;55.644;37.734;2023-07-22T20:35:06;10.85;;;5.00;;
75408;SDS011;63979;55.644;37.734;2023-07-22T20:40:13;15.30;;;10.32;;
75408;SDS011;63979;55.644;37.734;2023-07-22T20:45:15;9.75;;;5.85;;
75408;SDS011;63979;55.644;37.734;2023-07-22T20:50:16;8.23;;;4.40;;
75408;SDS011;63979;55.644;37.734;2023-07-22T20:55:18;8.50;;;4.90;;
75408;SDS011;63979;55.644;37.734;2023-07-22T21:00:19;5.93;;;3.97;;
75408;SDS011;63979;55.644;37.734;2023-07-22T21:05:20;6.57;;;4.15;;
75408;SDS011;63979;55.644;37.734;2023-07-22T21:10:21;10.40;;;6.07;;
75408;SDS011;63979;55.644;37.734;2023-07-22T21:15:23;4.70;;;3.55;;
75408;SDS011;63979;55.644;37.734;2023-07-22T21:20:24;5.70;;;4.00;;
75408;SDS011;63979;55.644;37.734;2023-07-22T21:30:26;10.80;;;4.88;;
75408;SDS011;63979;55.644;37.734;2023-07-22T21:35:28;5.97;;;3.67;;
75408;SDS011;63979;55.644;37.734;2023-07-22T21:40:36;6.55;;;4.07;;
75408;SDS011;63979;55.644;37.734;2023-07-22T21:45:37;4.03;;;3.22;;
75408;SDS011;63979;55.644;37.734;2023-07-22T21:50:40;7.38;;;4.18;;
75408;SDS011;63979;55.644;37.734;2023-07-22T21:55:41;5.35;;;4.20;;
75408;SDS011;63979;55.644;37.734;2023-07-22T22:00:42;8.63;;;3.70;;
75408;SDS011;63979;55.644;37.734;2023-07-22T22:05:43;9.10;;;4.38;;
75408;SDS011;63979;55.644;37.734;2023-07-22T22:10:44;4.85;;;3.55;;
75408;SDS011;63979;55.644;37.734;2023-07-22T22:15:46;5.18;;;3.67;;
75408;SDS011;63979;55.644;37.734;2023-07-22T22:20:47;5.47;;;3.45;;
75408;SDS011;63979;55.644;37.734;2023-07-22T22:25:48;4.65;;;3.10;;
75408;SDS011;63979;55.644;37.734;2023-07-22T22:30:50;4.57;;;3.15;;
75408;SDS011;63979;55.644;37.734;2023-07-22T22:35:52;8.27;;;2.92;;
75408;SDS011;63979;55.644;37.734;2023-07-22T22:40:54;2.95;;;2.72;;
75408;SDS011;63979;55.644;37.734;2023-07-22T22:45:55;7.00;;;3.75;;
75408;SDS011;63979;55.644;37.734;2023-07-22T22:50:56;4.30;;;3.10;;
75408;SDS011;63979;55.644;37.734;2023-07-22T22:55:57;4.30;;;2.97;;
75408;SDS011;63979;55.644;37.734;2023-07-22T23:00:59;7.13;;;3.20;;
75408;SDS011;63979;55.644;37.734;2023-07-22T23:06:09;4.50;;;3.30;;
75408;SDS011;63979;55.644;37.734;2023-07-22T23:11:12;6.47;;;3.65;;
75408;SDS011;63979;55.644;37.734;2023-07-22T23:16:15;6.57;;;3.42;;
75408;SDS011;63979;55.644;37.734;2023-07-22T23:21:17;4.95;;;3.67;;
75408;SDS011;63979;55.644;37.734;2023-07-22T23:26:18;6.88;;;3.60;;
75408;SDS011;63979;55.644;37.734;2023-07-22T23:31:19;7.63;;;4.03;;
75408;SDS011;63979;55.644;37.734;2023-07-22T23:36:20;4.85;;;4.18;;
75408;SDS011;63979;55.644;37.734;2023-07-22T23:41:22;5.63;;;4.22;;
75408;SDS011;63979;55.644;37.734;2023-07-22T23:46:24;8.07;;;4.45;;
75408;SDS011;63979;55.644;37.734;2023-07-22T23:56:26;4.32;;;3.55;;
